Artesia Camp, New Mexico
Current Conditions -  °F | °C
As of 11:15 PM on Thursday 18 Dec 2014 (Local Time) from KALM Reporting Station
Overcast Overcast  
Wind Chill: 38°   Ceiling: 4500
Heat Index: 41°   Visibility: 10mi
Dew Point: 39°   Wind: 5mph
Humidity: 93%   Direction: 30°NNE
Pressure: 30.15"   Gusts: NA
Location:  32.7847°N, 105.644°W
Report Text: KALM 190615Z AUTO 03004KT 10SM OVC045 05/04 A3015 RMK AO2
Loading
Personal Weather Stations






























Interactive Weather Map New forecast layout! Learn more

10-Day Weather Forecast

Advertisements
Track Severe Weather on mobile